Time;durP1;ratioP1;P1;durP2;ratioP2;P2;SDS_P1;SDS_P2;PMS_P1;PMS_P2;Temp;Humidity;BMP_temperature;BMP_pressure;BME280_temperature;BME280_humidity;BME280_pressure;Samples;Min_cycle;Max_cycle;Signal;HPM_P1;HPM_P2
2023/10/28 00:02:25;;;;;;;14.87;9.80;;;;;;;;;;6213557;23;20405;-90
2023/10/28 00:05:00;;;;;;;13.10;9.60;;;;;;;;;;6218436;22;20433;-92
2023/10/28 00:07:31;;;;;;;13.43;9.27;;;;;;;;;;6243285;23;20367;-93
2023/10/28 00:10:07;;;;;;;17.47;9.43;;;;;;;;;;6243036;23;20476;-93
2023/10/28 00:12:36;;;;;;;17.57;11.27;;;;;;;;;;6243590;23;20413;-93
2023/10/28 00:15:05;;;;;;;15.90;9.47;;;;;;;;;;6226773;23;20435;-93
2023/10/28 00:17:32;;;;;;;13.90;9.40;;;;;;;;;;6211771;23;20399;-93
2023/10/28 00:20:41;;;;;;;14.10;9.73;;;9.40;99.90;;;;;;6212536;23;20419;-93
2023/10/28 00:23:16;;;;;;;14.27;9.80;;;;;;;;;;6211331;23;20452;-93
2023/10/28 00:25:50;;;;;;;13.80;9.20;;;;;;;;;;6211029;23;20421;-92
2023/10/28 00:31:24;;;;;;;13.80;9.90;;;9.40;99.90;;;;;;6208478;23;20446;-93
2023/10/28 00:34:06;;;;;;;13.77;8.83;;;;;;;;;;6211414;23;20482;-92
2023/10/28 00:36:56;;;;;;;16.07;11.10;;;;;;;;;;6213519;23;20383;-92
2023/10/28 00:39:34;;;;;;;15.40;10.43;;;;;;;;;;6215382;23;20386;-92
2023/10/28 00:42:35;;;;;;;14.13;10.30;;;9.40;99.90;;;;;;6215370;23;20394;-91
2023/10/28 00:45:56;;;;;;;16.67;9.90;;;9.40;99.90;;;;;;6214885;23;20502;-90
2023/10/28 00:48:28;;;;;;;17.30;10.73;;;;;;;;;;6204281;23;20398;-91
2023/10/28 00:51:02;;;;;;;13.87;9.30;;;;;;;;;;6215447;23;20445;-93
2023/10/28 00:53:35;;;;;;;16.60;10.93;;;;;;;;;;6215417;23;20372;-91
2023/10/28 00:56:19;;;;;;;15.57;9.70;;;9.40;99.90;;;;;;6215004;23;20422;-91
2023/10/28 00:59:04;;;;;;;17.33;10.10;;;;;;;;;;6215200;23;20418;-92
2023/10/28 01:01:45;;;;;;;16.60;11.80;;;;;;;;;;6215411;23;20387;-91
2023/10/28 01:09:34;;;;;;;12.27;8.73;;;;;;;;;;6253595;22;20453;-92
2023/10/28 01:12:02;;;;;;;13.27;9.53;;;;;;;;;;6275547;22;20452;-92
2023/10/28 01:14:29;;;;;;;14.33;10.40;;;;;;;;;;6263750;23;20453;-92
2023/10/28 01:16:56;;;;;;;14.27;10.53;;;;;;;;;;6237456;23;20417;-93
2023/10/28 01:19:25;;;;;;;14.37;11.03;;;;;;;;;;6236968;23;20388;-93
2023/10/28 01:22:00;;;;;;;16.60;11.10;;;;;;;;;;6233115;23;20398;-91
2023/10/28 05:57:26;;;;;;;5.13;4.70;;;8.90;99.90;;;;;;6190423;23;20381;-92
2023/10/28 06:00:10;;;;;;;5.73;4.87;;;;;;;;;;6242491;23;20369;-92
2023/10/28 06:02:53;;;;;;;7.70;6.60;;;;;;;;;;6244446;23;20405;-91
2023/10/28 06:05:25;;;;;;;7.60;5.57;;;;;;;;;;6240149;23;20453;-93
2023/10/28 06:08:00;;;;;;;6.13;5.17;;;;;;;;;;6244189;23;20389;-91
2023/10/28 06:14:25;;;;;;;5.90;5.07;;;9.00;99.90;;;;;;6217947;23;20406;-93
2023/10/28 06:17:31;;;;;;;6.53;5.67;;;9.00;99.90;;;;;;6218725;23;20482;-93
2023/10/28 06:23:19;;;;;;;7.40;6.23;;;;;;;;;;6138547;23;20481;-93
2023/10/28 06:26:07;;;;;;;6.47;5.70;;;;;;;;;;6232073;23;20440;-93
2023/10/28 06:32:44;;;;;;;6.07;4.97;;;9.00;99.90;;;;;;6241020;23;20436;-91
2023/10/28 06:35:19;;;;;;;6.23;5.70;;;;;;;;;;6243160;23;20393;-90
2023/10/28 06:41:29;;;;;;;6.00;5.27;;;;;;;;;;6081923;23;20422;-93
2023/10/28 06:44:05;;;;;;;6.73;5.97;;;9.10;99.90;;;;;;6105683;23;20454;-93
2023/10/28 06:46:36;;;;;;;7.03;5.97;;;;;;;;;;6104910;23;20468;-93
2023/10/28 06:49:34;;;;;;;6.20;5.60;;;9.10;99.90;;;;;;6116472;23;20425;-90
2023/10/28 06:52:49;;;;;;;7.27;6.57;;;9.10;99.90;;;;;;6124067;23;20461;-91
2023/10/28 06:55:30;;;;;;;7.40;6.00;;;;;;;;;;6123532;23;20454;-91
2023/10/28 06:58:00;;;;;;;8.30;6.93;;;;;;;;;;6216225;23;20402;-91
2023/10/28 07:00:36;;;;;;;7.13;6.43;;;;;;;;;;6227947;23;20474;-90
2023/10/28 07:05:47;;;;;;;10.70;7.67;;;;;;;;;;6226483;23;20429;-92
2023/10/28 07:08:18;;;;;;;9.00;7.50;;;;;;;;;;6234152;23;20721;-93
2023/10/28 07:11:00;;;;;;;9.43;7.67;;;9.10;99.90;;;;;;6229958;23;20410;-93
2023/10/28 07:13:30;;;;;;;7.20;6.27;;;;;;;;;;6228395;23;20685;-93
2023/10/28 07:16:09;;;;;;;8.40;6.93;;;9.20;99.90;;;;;;6230694;23;20393;-93
2023/10/28 07:18:42;;;;;;;8.40;7.13;;;;;;;;;;6230357;23;20469;-93
2023/10/28 07:21:41;;;;;;;7.37;6.60;;;;;;;;;;6232570;23;20396;-93
2023/10/28 07:37:53;;;;;;;8.70;7.70;;;;;;;;;;6019649;23;20443;-89
2023/10/28 07:40:32;;;;;;;9.37;7.30;;;;;;;;;;6051725;23;20422;-92
2023/10/28 07:43:18;;;;;;;8.50;7.63;;;;;;;;;;6094697;23;20401;-90
2023/10/28 07:45:58;;;;;;;12.90;8.73;;;9.30;99.90;;;;;;6087515;23;20423;-92
2023/10/28 07:51:17;;;;;;;9.13;7.40;;;;;;;;;;6086560;23;20465;-91
2023/10/28 07:53:49;;;;;;;22.87;16.57;;;;;;;;;;6096221;23;20433;-92
2023/10/28 09:04:24;;;;;;;;;;;;;;;;;;;;;
2023/10/28 09:58:46;;;;;;;14.40;12.40;;;10.50;99.90;;;;;;6194991;23;20446;-92
2023/10/28 10:01:53;;;;;;;15.17;12.27;;;10.50;99.90;;;;;;6189586;23;20489;-91
2023/10/28 11:10:46;;;;;;;;;;;;;;;;;;;;;
2023/10/28 12:16:53;;;;;;;9.43;8.50;;;;;;;;;;6119390;23;20418;-93
2023/10/28 12:19:30;;;;;;;11.00;9.40;;;;;;;;;;6200602;23;20439;-93
2023/10/28 12:22:29;;;;;;;17.67;13.83;;;;;;;;;;6211124;23;20397;-92
2023/10/28 12:25:28;;;;;;;10.93;8.33;;;12.30;12.80;;;;;;6214722;23;20423;-92
2023/10/28 12:28:02;;;;;;;10.00;7.60;;;;;;;;;;6184878;23;20418;-93
2023/10/28 12:30:54;;;;;;;;;;;;;;;;;;;;;
2023/10/28 12:33:25;;;;;;;12.97;9.60;;;;;;;;;;6209588;23;20419;-93
2023/10/28 12:36:17;;;;;;;9.20;8.20;;;;;;;;;;6214693;23;20434;-92
2023/10/28 12:42:16;;;;;;;9.70;8.43;;;;;;;;;;6204582;23;20458;-94
2023/10/28 12:44:52;;;;;;;11.50;9.70;;;;;;;;;;6212204;23;20442;-94
2023/10/28 12:47:34;;;;;;;13.00;9.27;;;;;;;;;;6210286;23;20418;-93
2023/10/28 12:54:05;;;;;;;11.87;10.67;;;;;;;;;;6119422;23;20456;-93
2023/10/28 12:57:11;;;;;;;13.90;10.23;;;12.00;99.90;;;;;;6146045;23;20703;-94
2023/10/28 13:06:03;;;;;;;;;;;;;;;;;;;;;
2023/10/28 13:08:57;;;;;;;13.33;10.87;;;12.10;99.90;;;;;;6143488;23;20377;-93
2023/10/28 13:11:48;;;;;;;13.50;11.17;;;;;;;;;;6198854;23;20453;-94
2023/10/28 13:14:19;;;;;;;11.63;9.73;;;;;;;;;;6203497;23;20457;-92
2023/10/28 13:17:40;;;;;;;13.30;11.80;;;12.10;99.90;;;;;;6203532;23;20379;-93
2023/10/28 13:37:34;;;;;;;13.90;10.13;;;12.00;99.90;;;;;;6196457;23;20452;-94
2023/10/28 13:48:58;;;;;;;9.97;7.97;;;;;;;;;;6240725;23;20509;-92
2023/10/28 13:52:00;;;;;;;13.40;8.70;;;;;;;;;;6225300;23;20438;-94
2023/10/28 13:54:59;;;;;;;13.53;10.80;;;12.00;99.90;;;;;;6238303;23;20414;-94
2023/10/28 13:58:02;;;;;;;13.93;9.93;;;12.00;99.90;;;;;;6241702;23;20416;-94
2023/10/28 14:01:08;;;;;;;12.77;10.53;;;;;;;;;;6236412;23;20448;-94
2023/10/28 14:06:45;;;;;;;12.90;9.70;;;;;;;;;;6205254;23;20407;-93
2023/10/28 14:09:43;;;;;;;11.80;8.60;;;12.10;99.90;;;;;;6206785;23;20426;-94
2023/10/28 14:36:23;;;;;;;9.17;7.03;;;;;;;;;;6243736;23;20445;-94
2023/10/28 14:41:42;;;;;;;11.90;9.80;;;;;;;;;;6239397;23;20532;-92
2023/10/28 14:44:15;;;;;;;15.00;11.50;;;;;;;;;;6235777;23;20386;-93
2023/10/28 14:49:33;;;;;;;12.60;10.23;;;;;;;;;;6230071;23;20398;-93
2023/10/28 14:52:35;;;;;;;14.93;9.50;;;11.90;99.90;;;;;;6233265;23;20414;-94
2023/10/28 14:55:09;;;;;;;12.90;10.13;;;;;;;;;;6236208;23;20426;-92
2023/10/28 14:57:37;;;;;;;13.33;10.90;;;;;;;;;;6233788;23;20387;-93
2023/10/28 15:00:10;;;;;;;13.10;10.43;;;11.70;99.90;;;;;;6233071;23;20410;-93
2023/10/28 15:02:42;;;;;;;14.13;11.27;;;;;;;;;;6239941;23;20409;-93
2023/10/28 15:05:22;;;;;;;17.53;12.00;;;;;;;;;;6237041;23;20395;-92
2023/10/28 15:08:10;;;;;;;15.30;10.60;;;11.70;99.90;;;;;;6240914;23;20445;-94
2023/10/28 15:11:22;;;;;;;14.13;11.30;;;11.60;99.90;;;;;;6243917;23;20410;-93
2023/10/28 15:14:07;;;;;;;;;;;;;;;;;;;;;
2023/10/28 15:19:39;;;;;;;17.73;11.70;;;11.50;99.90;;;;;;6235993;23;20433;-94
2023/10/28 15:22:08;;;;;;;18.33;13.57;;;;;;;;;;6243982;23;20394;-91
2023/10/28 15:24:39;;;;;;;12.80;11.43;;;;;;;;;;6243380;23;20398;-92
2023/10/28 15:27:08;;;;;;;14.77;12.97;;;;;;;;;;6241780;23;20390;-94
2023/10/28 15:29:46;;;;;;;16.50;12.33;;;;;;;;;;6239680;23;20397;-93
2023/10/28 15:32:39;;;;;;;22.03;12.83;;;;;;;;;;6242872;23;20409;-92
2023/10/28 15:46:24;;;;;;;13.97;10.77;;;;;;;;;;6141603;23;20711;-94
2023/10/28 15:48:53;;;;;;;17.90;14.70;;;;;;;;;;6224142;23;20414;-94
2023/10/28 15:51:22;;;;;;;14.43;12.93;;;;;;;;;;6237725;23;20414;-93
2023/10/28 15:56:36;;;;;;;17.03;12.73;;;;;;;;;;6237052;23;20386;-94
2023/10/28 15:59:15;;;;;;;18.57;13.50;;;;;;;;;;6240271;23;20469;-95
2023/10/28 16:04:20;;;;;;;15.90;12.63;;;;;;;;;;6204440;22;20446;-93
2023/10/28 16:06:54;;;;;;;26.73;15.67;;;;;;;;;;6180500;23;20424;-94
2023/10/28 16:09:29;;;;;;;16.83;13.30;;;;;;;;;;6180509;23;20731;-93
2023/10/28 16:14:36;;;;;;;18.40;14.70;;;;;;;;;;6258259;22;20425;-93
2023/10/28 16:17:04;;;;;;;21.50;16.47;;;;;;;;;;6245946;23;20370;-93
2023/10/28 16:19:45;;;;;;;20.03;15.33;;;;;;;;;;6245557;23;20433;-92
2023/10/28 16:22:18;;;;;;;23.33;15.37;;;;;;;;;;6245822;23;20406;-91
2023/10/28 16:25:03;;;;;;;19.20;14.70;;;;;;;;;;6245305;23;20477;-92
2023/10/28 16:27:42;;;;;;;19.30;14.70;;;;;;;;;;6245419;23;20519;-93
2023/10/28 16:30:24;;;;;;;19.07;15.40;;;;;;;;;;6245794;23;20394;-91
2023/10/28 16:32:59;;;;;;;23.20;15.60;;;;;;;;;;6245353;23;20431;-91
2023/10/28 16:38:36;;;;;;;17.60;11.93;;;11.50;99.90;;;;;;6273092;22;20504;-92
2023/10/28 16:41:09;;;;;;;15.93;9.73;;;;;;;;;;6275649;22;20401;-93
2023/10/28 16:44:09;;;;;;;24.20;14.00;;;11.40;99.90;;;;;;6275673;22;20397;-93
2023/10/28 16:57:01;;;;;;;10.23;8.30;;;;;;;;;;6276594;22;20405;-91
2023/10/28 16:59:31;;;;;;;8.07;7.27;;;;;;;;;;6275858;22;20441;-92
2023/10/28 17:01:59;;;;;;;11.00;7.60;;;;;;;;;;6275286;22;20409;-91
2023/10/28 17:09:55;;;;;;;7.37;6.67;;;;;;;;;;6220957;23;20396;-92
2023/10/28 17:12:33;;;;;;;7.53;6.80;;;;;;;;;;6235989;23;20474;-92
2023/10/28 17:15:07;;;;;;;9.80;7.47;;;11.30;99.90;;;;;;6235730;23;20492;-92
2023/10/28 17:24:05;;;;;;;10.30;8.07;;;11.40;99.90;;;;;;6113298;23;20417;-91
2023/10/28 17:29:50;;;;;;;18.43;12.93;;;;;;;;;;6233628;23;20485;-92
2023/10/28 17:32:33;;;;;;;12.30;8.73;;;;;;;;;;6237491;23;20402;-92
2023/10/28 18:24:33;;;;;;;12.10;10.17;;;11.30;99.90;;;;;;6260240;22;20463;-93
2023/10/28 18:32:52;;;;;;;15.63;11.30;;;;;;;;;;6190261;22;20420;-92
2023/10/28 18:35:23;;;;;;;9.93;8.30;;;;;;;;;;6255732;22;20426;-93
2023/10/28 18:41:22;;;;;;;15.80;11.07;;;;;;;;;;6228588;23;20438;-92
2023/10/28 18:47:22;;;;;;;16.53;12.37;;;11.40;99.90;;;;;;6242517;23;20390;-92
2023/10/28 18:53:14;;;;;;;24.50;15.63;;;11.30;99.90;;;;;;6223346;23;20406;-92
2023/10/28 19:03:20;;;;;;;14.47;11.10;;;11.30;99.90;;;;;;6196878;23;20437;-93
2023/10/28 19:06:07;;;;;;;14.67;10.87;;;;;;;;;;6087777;23;20450;-93
2023/10/28 19:15:04;;;;;;;14.97;11.60;;;;;;;;;;6150272;23;20444;-93
2023/10/28 19:17:43;;;;;;;11.80;9.47;;;;;;;;;;6224292;23;20805;-92
2023/10/28 19:20:18;;;;;;;14.10;9.13;;;;;;;;;;6234445;23;20438;-92
2023/10/28 19:26:13;;;;;;;11.90;9.80;;;;;;;;;;6135886;23;20436;-93
2023/10/28 19:29:11;;;;;;;13.27;10.33;;;11.30;99.90;;;;;;6138854;23;20464;-94
2023/10/28 19:34:44;;;;;;;15.37;13.27;;;;;;;;;;6034966;23;20519;-91
2023/10/28 19:54:08;;;;;;;13.80;11.73;;;;;;;;;;5956722;24;20465;-94
2023/10/28 20:03:16;;;;;;;16.93;12.10;;;11.20;99.90;;;;;;6007926;23;20377;-93
2023/10/28 20:05:57;;;;;;;16.10;12.40;;;;;;;;;;6123458;23;20473;-92
2023/10/28 20:11:26;;;;;;;15.37;12.03;;;;;;;;;;6175875;23;20416;-93
2023/10/28 20:16:59;;;;;;;18.63;13.13;;;11.00;99.90;;;;;;6235071;22;20425;-90
2023/10/28 20:38:21;;;;;;;11.00;8.87;;;10.60;99.90;;;;;;6055540;23;20466;-93
2023/10/28 20:59:04;;;;;;;16.83;11.33;;;;;;;;;;6244646;23;20504;-91
2023/10/28 21:01:31;;;;;;;22.70;12.87;;;;;;;;;;6242648;23;20516;-93
2023/10/28 21:03:59;;;;;;;16.57;12.17;;;;;;;;;;6230717;23;20402;-92
2023/10/28 21:06:27;;;;;;;24.07;13.70;;;;;;;;;;6235471;23;20464;-93
2023/10/28 21:08:57;;;;;;;22.90;13.27;;;;;;;;;;6245338;23;20380;-93
2023/10/28 21:11:25;;;;;;;21.97;11.97;;;;;;;;;;6245095;23;20405;-92
2023/10/28 21:13:52;;;;;;;14.63;11.17;;;;;;;;;;6245411;23;20468;-91
2023/10/28 21:16:21;;;;;;;15.63;10.50;;;;;;;;;;6245346;23;20397;-93
2023/10/28 21:18:50;;;;;;;15.37;10.40;;;;;;;;;;6239446;23;20875;-92
2023/10/28 21:21:17;;;;;;;16.37;9.97;;;;;;;;;;6233266;23;20441;-91
2023/10/28 21:23:45;;;;;;;14.43;9.90;;;;;;;;;;6240508;23;20394;-92
2023/10/28 21:26:12;;;;;;;14.43;8.43;;;;;;;;;;6245118;23;20477;-91
2023/10/28 21:28:40;;;;;;;13.17;8.50;;;;;;;;;;6242748;23;20369;-91
2023/10/28 21:31:09;;;;;;;10.70;9.20;;;;;;;;;;6237370;23;20434;-91
2023/10/28 21:33:38;;;;;;;13.20;9.40;;;;;;;;;;6235853;23;20416;-91
2023/10/28 21:36:06;;;;;;;9.03;8.07;;;;;;;;;;6243841;23;20431;-91
2023/10/28 21:38:33;;;;;;;13.87;9.93;;;;;;;;;;6245327;23;20444;-90
2023/10/28 21:41:01;;;;;;;12.20;9.27;;;;;;;;;;6245137;23;20386;-92
2023/10/28 21:43:28;;;;;;;8.97;8.07;;;;;;;;;;6244546;23;20386;-91
2023/10/28 21:46:02;;;;;;;10.23;9.00;;;10.30;99.90;;;;;;6236996;23;20434;-91
2023/10/28 21:48:30;;;;;;;8.07;7.30;;;;;;;;;;6244734;23;20414;-90
2023/10/28 21:50:59;;;;;;;9.53;8.40;;;;;;;;;;6241202;23;20413;-91
2023/10/28 21:53:26;;;;;;;9.77;8.47;;;;;;;;;;6230818;23;20414;-92
2023/10/28 21:55:53;;;;;;;18.53;8.60;;;;;;;;;;6230253;23;20448;-92
2023/10/28 22:19:11;;;;;;;15.90;12.20;;;;;;;;;;6212985;23;20486;-92
2023/10/28 22:21:45;;;;;;;20.13;11.90;;;;;;;;;;6212259;23;20418;-91
2023/10/28 22:24:16;;;;;;;12.23;9.37;;;;;;;;;;6195247;23;20412;-91
2023/10/28 22:26:43;;;;;;;10.93;8.87;;;;;;;;;;6173461;23;20404;-92
2023/10/28 23:24:24;;;;;;;11.87;7.43;;;9.60;99.90;;;;;;6254927;22;20502;-91
2023/10/28 23:40:05;;;;;;;11.67;7.97;;;;;;;;;;6256979;22;20467;-92
2023/10/28 23:42:50;;;;;;;;;;;;;;;;;;;;;
2023/10/28 23:48:29;;;;;;;;;;;;;;;;;;;;;
2023/10/28 23:50:57;;;;;;;14.37;7.77;;;;;;;;;;6228015;23;20402;-92
2023/10/28 23:53:24;;;;;;;12.53;8.17;;;;;;;;;;6223559;23;20916;-94
2023/10/28 23:55:53;;;;;;;13.53;9.60;;;;;;;;;;6224347;23;20446;-92
2023/10/28 23:58:20;;;;;;;11.83;7.63;;;;;;;;;;6227137;23;20442;-95
